Time;durP1;ratioP1;P1;durP2;ratioP2;P2;SDS_P1;SDS_P2;PMS_P1;PMS_P2;Temp;Humidity;BMP_temperature;BMP_pressure;BME280_temperature;BME280_humidity;BME280_pressure;Samples;Min_cycle;Max_cycle;Signal;HPM_P1;HPM_P2
2022/01/29 00:01:36;;;;;;;22.20;8.52;;;3.20;99.90;;;;;;4292051;28;10000032;-68
2022/01/29 00:04:02;;;;;;;14.23;7.60;;;3.20;99.90;;;;;;4979368;28;20104;-69
2022/01/29 00:06:27;;;;;;;19.70;7.63;;;3.30;99.90;;;;;;4976701;28;20046;-68
2022/01/29 00:08:56;;;;;;;25.08;8.88;;;3.20;99.90;;;;;;4978221;28;20541;-69
2022/01/29 00:11:27;;;;;;;25.27;8.63;;;3.30;99.90;;;;;;4977100;28;20039;-69
2022/01/29 00:13:52;;;;;;;24.77;7.78;;;3.30;99.90;;;;;;4981953;28;20614;-69
2022/01/29 00:16:18;;;;;;;21.60;8.55;;;3.30;99.90;;;;;;4976747;28;20026;-69
2022/01/29 00:18:44;;;;;;;25.48;9.00;;;3.30;99.90;;;;;;4975934;28;20094;-69
2022/01/29 00:21:10;;;;;;;23.70;9.02;;;3.30;99.90;;;;;;4978323;28;20081;-69
2022/01/29 00:23:35;;;;;;;24.00;9.32;;;3.30;99.90;;;;;;4985668;28;20053;-68
2022/01/29 00:26:01;;;;;;;24.30;9.05;;;3.30;99.90;;;;;;4976711;28;20027;-69
2022/01/29 00:28:28;;;;;;;22.10;9.73;;;3.30;99.90;;;;;;4981948;28;20035;-69
2022/01/29 00:30:53;;;;;;;22.10;9.40;;;3.40;99.90;;;;;;4978379;28;20198;-69
2022/01/29 00:33:19;;;;;;;25.08;10.38;;;3.40;99.90;;;;;;4976998;28;20914;-69
2022/01/29 00:35:44;;;;;;;24.88;10.52;;;3.40;99.90;;;;;;4982414;28;20610;-68
2022/01/29 00:38:10;;;;;;;22.92;10.82;;;3.40;99.90;;;;;;4975634;28;20031;-69
2022/01/29 00:40:37;;;;;;;26.60;11.45;;;3.40;99.90;;;;;;4981777;28;20026;-68
2022/01/29 00:43:04;;;;;;;29.92;11.60;;;3.40;99.90;;;;;;4980717;28;20038;-68
2022/01/29 00:45:31;;;;;;;22.90;11.18;;;3.50;99.90;;;;;;4972842;28;20042;-68
2022/01/29 00:47:56;;;;;;;28.25;11.88;;;3.40;99.90;;;;;;4978336;28;20030;-68
2022/01/29 00:50:22;;;;;;;23.90;12.25;;;3.40;99.90;;;;;;4979721;28;20071;-68
2022/01/29 00:52:48;;;;;;;27.65;12.55;;;3.50;99.90;;;;;;4979029;28;20030;-68
2022/01/29 00:55:13;;;;;;;23.17;12.38;;;3.40;99.90;;;;;;4980632;28;20027;-68
2022/01/29 00:57:40;;;;;;;29.05;13.43;;;3.50;99.90;;;;;;4978989;28;20058;-68
2022/01/29 01:00:08;;;;;;;26.10;13.43;;;3.50;99.90;;;;;;4976219;28;20487;-68
2022/01/29 01:02:33;;;;;;;25.77;13.63;;;3.50;99.90;;;;;;4976026;28;20033;-68
2022/01/29 01:04:59;;;;;;;27.48;14.23;;;3.50;99.90;;;;;;4986664;28;20137;-68
2022/01/29 01:07:25;;;;;;;30.52;14.07;;;3.50;99.90;;;;;;4978620;28;20023;-68
2022/01/29 01:09:50;;;;;;;28.52;14.88;;;3.50;99.90;;;;;;4981235;28;20035;-69
2022/01/29 01:12:16;;;;;;;29.20;14.27;;;3.50;99.90;;;;;;4974387;28;20038;-69
2022/01/29 01:14:42;;;;;;;34.85;14.75;;;3.50;99.90;;;;;;4979648;28;20486;-68
2022/01/29 01:17:08;;;;;;;28.05;14.80;;;3.50;99.90;;;;;;4977427;28;20033;-69
2022/01/29 01:19:34;;;;;;;30.33;14.82;;;3.60;99.90;;;;;;4976572;28;20034;-69
2022/01/29 01:21:59;;;;;;;34.83;16.40;;;3.60;99.90;;;;;;4983485;28;20022;-68
2022/01/29 01:24:25;;;;;;;31.27;16.23;;;3.60;99.90;;;;;;4974083;28;20038;-69
2022/01/29 01:26:51;;;;;;;29.30;15.73;;;3.60;99.90;;;;;;4975134;28;20038;-69
2022/01/29 01:29:17;;;;;;;27.45;15.45;;;3.60;99.90;;;;;;4975723;28;20044;-69
2022/01/29 01:31:45;;;;;;;29.13;15.90;;;3.60;99.90;;;;;;4974947;28;20062;-68
2022/01/29 01:34:18;;;;;;;28.42;15.27;;;3.60;99.90;;;;;;4980326;28;20084;-69
2022/01/29 01:36:49;;;;;;;29.88;16.15;;;3.60;99.90;;;;;;4976452;28;20027;-69
2022/01/29 01:39:19;;;;;;;28.38;16.55;;;3.60;99.90;;;;;;4979451;28;20534;-68
2022/01/29 01:41:54;;;;;;;28.17;15.73;;;3.60;99.90;;;;;;4984301;28;20111;-69
2022/01/29 01:44:19;;;;;;;30.48;16.45;;;3.70;99.90;;;;;;4980414;28;20026;-69
2022/01/29 01:46:45;;;;;;;30.55;15.60;;;3.60;99.90;;;;;;4980237;28;20026;-68
2022/01/29 01:49:11;;;;;;;30.58;16.08;;;3.70;99.90;;;;;;4976803;28;20062;-69
2022/01/29 01:51:37;;;;;;;32.85;16.60;;;3.70;99.90;;;;;;4978481;28;20085;-68
2022/01/29 01:54:03;;;;;;;29.05;15.75;;;3.70;99.90;;;;;;4980038;28;20030;-68
2022/01/29 01:56:29;;;;;;;27.13;14.93;;;3.60;99.90;;;;;;4981540;28;20027;-68
2022/01/29 01:58:57;;;;;;;28.50;15.73;;;3.70;99.90;;;;;;4976015;28;20086;-68
2022/01/29 02:01:23;;;;;;;28.35;15.50;;;3.70;99.90;;;;;;4976358;28;20027;-68
2022/01/29 02:03:49;;;;;;;26.77;15.57;;;3.70;99.90;;;;;;4974517;28;20022;-69
2022/01/29 02:06:15;;;;;;;29.17;15.35;;;3.70;99.90;;;;;;4978626;28;20030;-68
2022/01/29 02:08:41;;;;;;;25.35;15.60;;;3.70;99.90;;;;;;4974374;28;20026;-68
2022/01/29 02:11:08;;;;;;;33.25;15.88;;;3.80;99.90;;;;;;4973976;28;20064;-68
2022/01/29 02:13:34;;;;;;;31.10;14.85;;;3.70;99.90;;;;;;4978838;28;20022;-69
2022/01/29 02:16:01;;;;;;;26.88;15.18;;;3.80;99.90;;;;;;4974496;28;20738;-68
2022/01/29 02:18:27;;;;;;;31.15;15.20;;;3.80;99.90;;;;;;4977694;28;20030;-68
2022/01/29 02:20:52;;;;;;;31.35;15.65;;;3.80;99.90;;;;;;4976009;28;20386;-69
2022/01/29 02:23:18;;;;;;;27.52;15.38;;;3.80;99.90;;;;;;4972492;28;20487;-68
2022/01/29 02:25:48;;;;;;;30.88;15.48;;;3.80;99.90;;;;;;4978082;28;20030;-69
2022/01/29 02:28:16;;;;;;;34.95;15.15;;;3.80;99.90;;;;;;4977241;28;20023;-69
2022/01/29 02:30:45;;;;;;;30.90;15.43;;;3.80;99.90;;;;;;4976235;28;20085;-68
2022/01/29 02:33:13;;;;;;;27.58;14.93;;;3.80;99.90;;;;;;4976898;28;20030;-69
2022/01/29 02:35:49;;;;;;;31.17;15.07;;;3.80;99.90;;;;;;4974423;28;20043;-68
2022/01/29 02:38:19;;;;;;;28.70;15.00;;;3.80;99.90;;;;;;4974854;28;20050;-68
2022/01/29 02:40:48;;;;;;;30.20;15.35;;;3.80;99.90;;;;;;4970167;28;20041;-69
2022/01/29 02:43:17;;;;;;;29.45;14.85;;;3.90;99.90;;;;;;4976792;28;20701;-68
2022/01/29 02:45:44;;;;;;;27.73;14.50;;;3.90;99.90;;;;;;4974753;28;20038;-69
2022/01/29 02:48:11;;;;;;;30.15;14.82;;;3.90;99.90;;;;;;4975340;28;20216;-68
2022/01/29 02:50:38;;;;;;;32.28;14.82;;;3.90;99.90;;;;;;4973567;28;20109;-69
2022/01/29 02:53:04;;;;;;;26.20;14.65;;;3.90;99.90;;;;;;4979896;28;20487;-69
2022/01/29 02:55:30;;;;;;;31.58;14.70;;;3.90;99.90;;;;;;4976875;28;20039;-68
2022/01/29 02:57:56;;;;;;;26.98;14.80;;;3.90;99.90;;;;;;4981826;28;20077;-69
2022/01/29 03:00:22;;;;;;;26.15;14.07;;;3.90;99.90;;;;;;4978211;28;20026;-69
2022/01/29 03:02:48;;;;;;;29.90;14.43;;;4.00;99.90;;;;;;4977497;28;20030;-69
2022/01/29 03:05:13;;;;;;;26.77;13.93;;;4.00;99.90;;;;;;4972843;28;20044;-69
2022/01/29 03:07:39;;;;;;;27.60;13.43;;;3.90;99.90;;;;;;4977478;28;20050;-68
2022/01/29 03:10:07;;;;;;;28.85;13.90;;;4.00;99.90;;;;;;4981722;28;20027;-68
2022/01/29 03:12:33;;;;;;;27.10;13.77;;;4.00;99.90;;;;;;4971937;28;20042;-68
2022/01/29 03:14:59;;;;;;;30.50;14.30;;;4.00;99.90;;;;;;4974360;28;20031;-68
2022/01/29 03:17:24;;;;;;;30.75;14.73;;;4.00;99.90;;;;;;4978545;28;20089;-68
2022/01/29 03:19:53;;;;;;;21.70;13.60;;;4.00;99.90;;;;;;4976409;28;20143;-68
2022/01/29 03:22:19;;;;;;;30.60;13.95;;;4.00;99.90;;;;;;4983062;28;20394;-68
2022/01/29 03:24:45;;;;;;;30.42;13.77;;;4.00;99.90;;;;;;4975302;28;20052;-68
2022/01/29 03:27:11;;;;;;;30.50;14.25;;;4.00;99.90;;;;;;4976746;28;20165;-68
2022/01/29 03:29:36;;;;;;;26.88;14.05;;;4.00;99.90;;;;;;4978887;28;20129;-69
2022/01/29 03:32:02;;;;;;;25.17;13.70;;;4.00;99.90;;;;;;4977630;28;20117;-68
2022/01/29 03:34:28;;;;;;;28.20;13.32;;;4.00;99.90;;;;;;4975597;28;20040;-69
2022/01/29 03:36:56;;;;;;;26.65;13.25;;;4.00;99.90;;;;;;4976586;28;20037;-69
2022/01/29 03:39:23;;;;;;;27.58;13.27;;;4.00;99.90;;;;;;4981003;28;20106;-68
2022/01/29 03:41:49;;;;;;;30.27;12.85;;;4.00;99.90;;;;;;4979197;28;20447;-69
2022/01/29 03:44:15;;;;;;;27.35;13.98;;;4.00;99.90;;;;;;4978008;28;20149;-68
2022/01/29 03:46:41;;;;;;;25.88;13.07;;;4.00;99.90;;;;;;4983908;28;20038;-68
2022/01/29 03:49:06;;;;;;;25.40;13.40;;;4.00;99.90;;;;;;4979386;28;20478;-68
2022/01/29 03:51:32;;;;;;;28.58;13.75;;;4.00;99.90;;;;;;4986793;28;20490;-69
2022/01/29 03:53:57;;;;;;;27.00;13.48;;;4.10;99.90;;;;;;4987374;28;20030;-69
2022/01/29 03:56:24;;;;;;;28.67;13.25;;;4.00;99.90;;;;;;4987032;28;20023;-68
2022/01/29 03:58:49;;;;;;;23.70;13.00;;;4.10;99.90;;;;;;4985448;28;20038;-69
2022/01/29 04:01:15;;;;;;;22.75;12.98;;;4.10;99.90;;;;;;4991393;28;20038;-69
2022/01/29 04:03:40;;;;;;;22.42;12.57;;;4.10;99.90;;;;;;4989327;28;20058;-69
2022/01/29 04:06:06;;;;;;;25.77;12.38;;;4.10;99.90;;;;;;4976758;28;20134;-69
2022/01/29 04:08:39;;;;;;;28.13;13.00;;;4.10;99.90;;;;;;4986392;28;20363;-69
2022/01/29 04:11:04;;;;;;;26.55;12.27;;;4.10;99.90;;;;;;4986000;28;20027;-69
2022/01/29 04:13:30;;;;;;;24.63;12.70;;;4.20;99.90;;;;;;4981616;28;20140;-69
2022/01/29 04:15:56;;;;;;;25.27;12.45;;;4.10;99.90;;;;;;4986636;28;20126;-69
2022/01/29 04:18:21;;;;;;;23.23;12.02;;;4.10;99.90;;;;;;4982752;28;20026;-69
2022/01/29 04:20:47;;;;;;;24.83;12.93;;;4.20;99.90;;;;;;4988214;28;20034;-68
2022/01/29 04:23:12;;;;;;;25.52;11.93;;;4.20;99.90;;;;;;4976390;28;20069;-68
2022/01/29 04:25:38;;;;;;;26.35;12.45;;;4.10;99.90;;;;;;4988151;28;20107;-68
2022/01/29 04:28:05;;;;;;;21.83;11.95;;;4.20;99.90;;;;;;4986905;28;20026;-68
2022/01/29 04:30:39;;;;;;;26.67;12.57;;;4.10;99.90;;;;;;4979346;28;20047;-69
2022/01/29 04:35:50;;;;;;;24.88;12.07;;;4.10;99.90;;;;;;4979804;28;20454;-68
2022/01/29 04:38:16;;;;;;;26.40;11.68;;;4.10;99.90;;;;;;4988275;28;20406;-68
2022/01/29 04:40:42;;;;;;;28.80;12.68;;;4.10;99.90;;;;;;4987022;28;20034;-68
2022/01/29 04:43:08;;;;;;;25.80;12.55;;;4.10;99.90;;;;;;4983649;28;20038;-68
2022/01/29 04:45:34;;;;;;;28.30;13.13;;;4.10;99.90;;;;;;4989622;28;20031;-69
2022/01/29 04:48:00;;;;;;;26.50;12.55;;;4.10;99.90;;;;;;4984958;28;20022;-68
2022/01/29 04:50:27;;;;;;;24.10;13.00;;;4.00;99.90;;;;;;4984876;28;20030;-68
2022/01/29 04:52:53;;;;;;;28.23;13.57;;;4.10;99.90;;;;;;4984712;28;20557;-69
2022/01/29 04:55:18;;;;;;;27.80;12.80;;;4.10;99.90;;;;;;4983243;28;20034;-69
2022/01/29 04:57:44;;;;;;;27.90;13.48;;;4.10;99.90;;;;;;4986280;28;20084;-69
2022/01/29 05:00:21;;;;;;;32.85;13.05;;;4.10;99.90;;;;;;4983465;28;20038;-68
2022/01/29 05:02:54;;;;;;;28.83;13.23;;;4.00;99.90;;;;;;4987052;28;20046;-69
2022/01/29 05:05:21;;;;;;;27.50;13.88;;;4.10;99.90;;;;;;4986547;28;20030;-68
2022/01/29 05:07:47;;;;;;;28.77;13.57;;;4.00;99.90;;;;;;4988439;28;20058;-68
2022/01/29 05:10:13;;;;;;;27.23;12.40;;;4.00;99.90;;;;;;4984897;28;20569;-68
2022/01/29 05:12:53;;;;;;;28.50;14.00;;;4.00;99.90;;;;;;4988515;28;20085;-68
2022/01/29 05:15:30;;;;;;;30.00;14.30;;;4.00;99.90;;;;;;4987501;28;20149;-68
2022/01/29 05:28:52;;;;;;;27.63;12.57;;;4.10;99.90;;;;;;4980225;28;20406;-69
2022/01/29 05:31:18;;;;;;;30.65;14.02;;;4.10;99.90;;;;;;4982126;28;20018;-69
2022/01/29 05:33:44;;;;;;;28.80;13.60;;;4.10;99.90;;;;;;4975537;28;20070;-67
2022/01/29 05:36:09;;;;;;;27.40;13.63;;;4.00;99.90;;;;;;4977639;28;20964;-68
2022/01/29 05:38:35;;;;;;;26.88;13.63;;;4.10;99.90;;;;;;4974242;28;20117;-68
2022/01/29 05:41:03;;;;;;;28.55;13.90;;;4.00;99.90;;;;;;4977872;28;20490;-68
2022/01/29 05:43:28;;;;;;;30.15;13.68;;;4.00;99.90;;;;;;4980165;28;20080;-68
2022/01/29 05:45:54;;;;;;;30.13;13.45;;;4.00;99.90;;;;;;4980898;28;20030;-68
2022/01/29 05:48:20;;;;;;;25.52;14.00;;;4.10;99.90;;;;;;4981923;28;20431;-67
2022/01/29 05:50:45;;;;;;;28.58;13.95;;;4.00;99.90;;;;;;4979767;28;20026;-68
2022/01/29 05:53:11;;;;;;;27.42;14.13;;;4.00;99.90;;;;;;4974039;28;20023;-68
2022/01/29 05:55:37;;;;;;;31.40;14.80;;;4.10;99.90;;;;;;4978707;28;20080;-68
2022/01/29 05:58:03;;;;;;;30.75;14.13;;;4.10;99.90;;;;;;4976358;28;20034;-68
2022/01/29 06:00:28;;;;;;;35.60;14.75;;;4.10;99.90;;;;;;4977190;28;20042;-68
2022/01/29 06:03:02;;;;;;;30.65;14.93;;;4.10;99.90;;;;;;4977734;28;20114;-68
2022/01/29 06:05:28;;;;;;;30.02;15.40;;;4.10;99.90;;;;;;4974649;28;20252;-68
2022/01/29 06:07:54;;;;;;;35.58;14.73;;;4.10;99.90;;;;;;4977095;28;20058;-68
2022/01/29 06:10:20;;;;;;;31.85;14.80;;;4.10;99.90;;;;;;4973098;28;20034;-68
2022/01/29 06:12:55;;;;;;;35.00;15.23;;;4.10;99.90;;;;;;4978879;28;20026;-68
2022/01/29 06:15:21;;;;;;;32.55;15.57;;;4.10;99.90;;;;;;4982225;28;20034;-69
2022/01/29 06:17:46;;;;;;;30.30;14.25;;;4.10;99.90;;;;;;4979257;28;20032;-68
2022/01/29 06:20:12;;;;;;;30.55;15.55;;;4.10;99.90;;;;;;4974672;28;20027;-68
2022/01/29 06:22:41;;;;;;;36.92;16.55;;;4.10;99.90;;;;;;4977722;28;20069;-68
2022/01/29 06:25:07;;;;;;;31.17;16.27;;;4.10;99.90;;;;;;4976724;28;20502;-68
2022/01/29 06:27:32;;;;;;;32.53;15.85;;;4.10;99.90;;;;;;4980830;28;20038;-68
2022/01/29 06:29:58;;;;;;;31.67;16.30;;;4.10;99.90;;;;;;4980255;28;20038;-69
2022/01/29 06:32:24;;;;;;;29.75;14.90;;;4.10;99.90;;;;;;4974027;28;20398;-69
2022/01/29 06:34:50;;;;;;;30.70;15.27;;;4.10;99.90;;;;;;4979643;28;20035;-68
2022/01/29 06:37:15;;;;;;;32.38;15.38;;;4.10;99.90;;;;;;4974940;28;20022;-68
2022/01/29 06:39:41;;;;;;;27.75;14.73;;;4.10;99.90;;;;;;4976636;28;20034;-67
2022/01/29 06:42:07;;;;;;;29.52;15.05;;;4.10;99.90;;;;;;4979178;28;20058;-68
2022/01/29 06:44:32;;;;;;;30.77;15.38;;;4.10;99.90;;;;;;4971738;28;20034;-68
2022/01/29 06:46:58;;;;;;;32.22;15.60;;;4.10;99.90;;;;;;4980465;28;20033;-69
2022/01/29 06:49:24;;;;;;;35.13;16.30;;;4.10;99.90;;;;;;4978652;28;20105;-68
2022/01/29 06:51:49;;;;;;;35.15;15.80;;;4.10;99.90;;;;;;4977628;28;20074;-68
2022/01/29 06:54:15;;;;;;;35.47;16.30;;;4.10;99.90;;;;;;4977551;28;20034;-67
2022/01/29 06:56:41;;;;;;;45.25;22.27;;;4.10;99.90;;;;;;4977988;28;20557;-67
2022/01/29 06:59:06;;;;;;;38.63;17.48;;;4.10;99.90;;;;;;4974514;28;20084;-68
2022/01/29 07:01:32;;;;;;;28.90;15.77;;;4.10;99.90;;;;;;4973946;28;20149;-67
2022/01/29 07:03:57;;;;;;;31.20;15.57;;;4.10;99.90;;;;;;4972966;28;20026;-68
2022/01/29 07:06:23;;;;;;;27.70;15.75;;;4.10;99.90;;;;;;4980486;28;20031;-67
2022/01/29 07:08:49;;;;;;;29.45;15.38;;;4.10;99.90;;;;;;4974990;28;20084;-68
2022/01/29 07:11:18;;;;;;;28.38;14.60;;;4.10;99.90;;;;;;4977255;28;20428;-68
2022/01/29 07:13:44;;;;;;;32.45;14.18;;;4.10;99.90;;;;;;4974707;28;20058;-67
2022/01/29 07:16:10;;;;;;;29.80;14.30;;;4.20;99.90;;;;;;4973914;28;21075;-68
2022/01/29 07:18:35;;;;;;;29.02;14.25;;;4.20;99.90;;;;;;4988558;28;20502;-68
2022/01/29 07:21:01;;;;;;;27.15;14.63;;;4.20;99.90;;;;;;4983454;28;20122;-68
2022/01/29 07:23:26;;;;;;;25.83;13.43;;;4.20;99.90;;;;;;4978804;28;20092;-68
2022/01/29 07:25:52;;;;;;;24.30;13.23;;;4.20;99.90;;;;;;4976720;28;20604;-69
2022/01/29 07:28:17;;;;;;;23.10;13.15;;;4.20;99.90;;;;;;4975579;28;20035;-68
2022/01/29 07:30:43;;;;;;;27.15;13.60;;;4.20;99.90;;;;;;4988670;28;20053;-68
2022/01/29 07:33:09;;;;;;;28.52;13.68;;;4.20;99.90;;;;;;4989837;28;20041;-69
2022/01/29 07:35:34;;;;;;;29.65;13.77;;;4.20;99.90;;;;;;4983536;28;20471;-68
2022/01/29 07:38:00;;;;;;;27.02;13.13;;;;;;;;;;4986009;28;20038;-77
2022/01/29 07:40:26;;;;;;;29.73;13.93;;;;;;;;;;4988474;28;20106;-77
2022/01/29 07:42:52;;;;;;;25.48;13.85;;;;;;;;;;4990795;28;20041;-78
2022/01/29 07:45:18;;;;;;;25.55;14.00;;;;;;;;;;4984691;28;20478;-77
2022/01/29 07:47:44;;;;;;;25.60;13.23;;;;;;;;;;4990515;28;20102;-77
2022/01/29 07:50:10;;;;;;;25.20;14.43;;;;;;;;;;4985275;28;20094;-76
2022/01/29 07:52:36;;;;;;;26.20;13.90;;;;;;;;;;4990456;28;20029;-76
2022/01/29 07:55:02;;;;;;;22.67;12.77;;;;;;;;;;4985013;28;20035;-76
2022/01/29 07:57:28;;;;;;;21.40;11.57;;;;;;;;;;4990057;28;20030;-76
2022/01/29 07:59:54;;;;;;;22.40;12.57;;;;;;;;;;4987921;28;20030;-76
2022/01/29 08:02:20;;;;;;;22.15;12.30;;;;;;;;;;4977651;28;20026;-76
2022/01/29 08:04:46;;;;;;;22.10;11.73;;;;;;;;;;4986800;28;20290;-76
2022/01/29 08:07:12;;;;;;;20.45;11.55;;;;;;;;;;4990482;28;20042;-77
2022/01/29 08:09:38;;;;;;;22.67;11.57;;;;;;;;;;4989945;28;20034;-77
2022/01/29 08:12:04;;;;;;;18.85;10.63;;;;;;;;;;4982419;28;20060;-76
2022/01/29 08:14:30;;;;;;;20.30;11.25;;;;;;;;;;4975800;28;20470;-77
2022/01/29 08:16:56;;;;;;;17.17;9.57;;;;;;;;;;4990360;28;20027;-77
2022/01/29 08:19:22;;;;;;;15.32;10.02;;;;;;;;;;4988756;28;20460;-77
2022/01/29 08:21:48;;;;;;;18.23;9.38;;;;;;;;;;4981292;28;20027;-73
2022/01/29 08:24:14;;;;;;;17.38;9.50;;;;;;;;;;4977657;28;20522;-74
2022/01/29 08:26:40;;;;;;;16.58;9.93;;;;;;;;;;4980108;28;20035;-74
2022/01/29 08:29:06;;;;;;;17.48;9.93;;;;;;;;;;4977731;28;20142;-74
2022/01/29 08:31:32;;;;;;;15.25;9.90;;;;;;;;;;4985753;28;20085;-74
2022/01/29 08:33:58;;;;;;;18.13;10.23;;;;;;;;;;4984420;28;20036;-74
2022/01/29 08:36:24;;;;;;;16.35;10.52;;;;;;;;;;4984244;28;20030;-74
2022/01/29 08:38:50;;;;;;;16.63;10.15;;;;;;;;;;4982035;28;20728;-75
2022/01/29 08:41:16;;;;;;;16.20;10.35;;;;;;;;;;4983524;28;20105;-75
2022/01/29 08:43:42;;;;;;;17.55;10.95;;;;;;;;;;4979437;28;20531;-74
2022/01/29 08:46:08;;;;;;;14.63;9.80;;;;;;;;;;4981370;28;20042;-75
2022/01/29 08:48:34;;;;;;;14.07;9.15;;;;;;;;;;4984570;28;20027;-75
2022/01/29 08:51:00;;;;;;;15.10;9.98;;;;;;;;;;4981706;28;20033;-74
2022/01/29 08:53:26;;;;;;;14.32;9.68;;;;;;;;;;4975976;28;20049;-74
2022/01/29 08:55:53;;;;;;;17.17;10.10;;;;;;;;;;4985367;28;20451;-74
2022/01/29 08:58:19;;;;;;;20.10;11.98;;;;;;;;;;4975530;28;20031;-75
2022/01/29 09:00:46;;;;;;;17.63;11.02;;;;;;;;;;4983825;28;20472;-74
2022/01/29 09:03:16;;;;;;;16.23;9.70;;;;;;;;;;4981318;28;20030;-74
2022/01/29 09:05:43;;;;;;;14.40;9.60;;;;;;;;;;4978622;28;20031;-75
2022/01/29 09:08:09;;;;;;;17.50;10.80;;;;;;;;;;4985220;28;20471;-74
2022/01/29 09:10:35;;;;;;;15.50;10.40;;;;;;;;;;4974886;28;20039;-74
2022/01/29 09:13:03;;;;;;;13.35;8.95;;;;;;;;;;4982759;28;20027;-74
2022/01/29 09:15:29;;;;;;;11.73;8.55;;;;;;;;;;4960481;28;20034;-75
2022/01/29 09:17:55;;;;;;;11.13;7.55;;;;;;;;;;4974741;28;20070;-74
2022/01/29 09:20:21;;;;;;;10.95;7.60;;;;;;;;;;4982771;28;20041;-74
2022/01/29 09:22:47;;;;;;;10.77;7.18;;;;;;;;;;4974124;28;20390;-74
2022/01/29 09:25:13;;;;;;;11.05;7.25;;;;;;;;;;4980382;28;20030;-74
2022/01/29 09:27:40;;;;;;;10.82;7.60;;;;;;;;;;4981846;28;20125;-74
2022/01/29 09:30:07;;;;;;;10.93;7.50;;;;;;;;;;4977771;28;20046;-74
2022/01/29 09:32:33;;;;;;;11.43;7.18;;;;;;;;;;4971633;28;20497;-74
2022/01/29 09:34:59;;;;;;;9.98;7.18;;;;;;;;;;4977928;28;20474;-74
2022/01/29 09:37:25;;;;;;;10.52;7.05;;;;;;;;;;4972041;28;20038;-75
2022/01/29 09:39:53;;;;;;;11.20;7.50;;;;;;;;;;4984199;28;20034;-75
2022/01/29 09:42:19;;;;;;;9.93;6.95;;;;;;;;;;4982634;28;20038;-74
2022/01/29 09:44:47;;;;;;;10.60;7.60;;;;;;;;;;4972956;28;20362;-74
2022/01/29 09:47:16;;;;;;;11.05;6.90;;;;;;;;;;4969135;28;20023;-74
2022/01/29 09:49:42;;;;;;;11.45;7.38;;;;;;;;;;4980193;28;20084;-74
2022/01/29 09:52:08;;;;;;;12.05;7.00;;;;;;;;;;4983667;28;20030;-74
2022/01/29 09:54:34;;;;;;;10.70;6.95;;;;;;;;;;4983928;28;20614;-74
2022/01/29 09:57:00;;;;;;;9.55;6.85;;;;;;;;;;4984723;28;20832;-74
2022/01/29 09:59:26;;;;;;;9.35;5.97;;;;;;;;;;4982711;28;20366;-74
2022/01/29 10:01:52;;;;;;;7.93;5.88;;;;;;;;;;4981088;28;20471;-74
2022/01/29 10:04:18;;;;;;;9.27;6.35;;;;;;;;;;4979887;28;20034;-74
2022/01/29 10:06:47;;;;;;;9.55;6.60;;;;;;;;;;4984301;28;20208;-75
2022/01/29 10:09:31;;;;;;;11.15;6.47;;;;;;;;;;4981043;28;20515;-74
2022/01/29 10:12:16;;;;;;;9.77;6.40;;;;;;;;;;4985566;28;20034;-75
2022/01/29 10:14:46;;;;;;;10.45;6.50;;;;;;;;;;4980799;28;20065;-74
2022/01/29 10:17:12;;;;;;;9.52;6.50;;;;;;;;;;4969341;28;20181;-75
2022/01/29 10:19:38;;;;;;;9.05;5.60;;;;;;;;;;4974663;28;20077;-75
2022/01/29 10:22:04;;;;;;;9.40;5.80;;;;;;;;;;4978282;28;20356;-75
2022/01/29 10:24:30;;;;;;;7.47;5.55;;;;;;;;;;4977393;28;20060;-75
2022/01/29 10:26:56;;;;;;;11.20;7.30;;;;;;;;;;4977873;28;20030;-74
2022/01/29 10:29:24;;;;;;;9.02;6.72;;;;;;;;;;4979363;28;20038;-75
2022/01/29 10:31:54;;;;;;;10.32;6.95;;;;;;;;;;4981921;28;20030;-75
2022/01/29 10:34:23;;;;;;;8.57;6.00;;;;;;;;;;4984182;28;20040;-75
2022/01/29 10:37:07;;;;;;;8.20;5.97;;;;;;;;;;4972730;28;20098;-74
2022/01/29 10:39:34;;;;;;;8.65;5.65;;;;;;;;;;4977009;28;20070;-75
2022/01/29 10:42:12;;;;;;;8.85;6.05;;;;;;;;;;4982793;28;20121;-74
2022/01/29 10:44:43;;;;;;;7.38;5.32;;;;;;;;;;4975942;28;20122;-74
2022/01/29 10:47:09;;;;;;;11.13;6.72;;;;;;;;;;4977858;28;20407;-75
2022/01/29 10:49:38;;;;;;;10.32;6.40;;;;;;;;;;4977865;28;20018;-75
2022/01/29 10:52:10;;;;;;;8.50;6.28;;;5.50;99.90;;;;;;4990262;28;20037;-75
2022/01/29 10:54:41;;;;;;;7.85;5.00;;;5.50;99.90;;;;;;4988407;28;20479;-75
2022/01/29 10:57:11;;;;;;;7.55;5.53;;;5.50;99.90;;;;;;4984497;28;20244;-74
2022/01/29 10:59:49;;;;;;;8.85;6.05;;;5.50;99.90;;;;;;4992112;28;20023;-76
2022/01/29 11:02:15;;;;;;;10.27;7.38;;;5.50;99.90;;;;;;4977845;28;20677;-75
2022/01/29 11:04:42;;;;;;;10.75;7.95;;;5.50;99.90;;;;;;4990682;28;20038;-75
2022/01/29 11:07:19;;;;;;;14.75;10.55;;;5.60;99.90;;;;;;4991249;28;20033;-75
2022/01/29 11:09:52;;;;;;;13.60;9.13;;;5.60;99.90;;;;;;4986696;28;20022;-76
2022/01/29 11:12:21;;;;;;;11.10;7.88;;;5.60;99.90;;;;;;4985820;28;20053;-75
2022/01/29 11:14:48;;;;;;;10.82;8.13;;;5.60;99.90;;;;;;4985728;28;20042;-75
2022/01/29 11:17:15;;;;;;;11.85;9.32;;;5.60;99.90;;;;;;4991317;28;20294;-75
2022/01/29 11:19:41;;;;;;;9.68;7.82;;;5.60;99.90;;;;;;4983079;28;20089;-76
2022/01/29 11:22:09;;;;;;;11.35;8.90;;;5.60;99.90;;;;;;4988033;28;20429;-75
2022/01/29 11:24:37;;;;;;;10.88;8.88;;;5.60;99.90;;;;;;4993199;28;20042;-75
2022/01/29 11:27:21;;;;;;;10.02;7.88;;;5.60;99.90;;;;;;5003151;28;20049;-75
2022/01/29 11:30:08;;;;;;;11.00;8.20;;;5.60;99.90;;;;;;4982412;28;20050;-76
2022/01/29 11:32:54;;;;;;;13.98;10.65;;;5.60;99.90;;;;;;4990631;28;20038;-75
2022/01/29 11:35:22;;;;;;;12.40;9.73;;;5.60;99.90;;;;;;4987388;28;20026;-76
2022/01/29 11:38:01;;;;;;;10.82;8.65;;;5.70;99.90;;;;;;4988974;28;20061;-75
2022/01/29 11:40:38;;;;;;;11.15;8.20;;;5.70;99.90;;;;;;4980570;28;20483;-76
2022/01/29 11:43:19;;;;;;;8.48;6.90;;;5.80;99.90;;;;;;4975140;28;20031;-75
2022/01/29 11:46:04;;;;;;;9.20;6.70;;;;;;;;;;4986809;28;20037;-75
2022/01/29 11:48:32;;;;;;;9.18;6.53;;;;;;;;;;4982210;28;20716;-76
2022/01/29 11:51:02;;;;;;;9.15;7.10;;;5.80;99.90;;;;;;4986522;28;20033;-76
2022/01/29 11:53:50;;;;;;;8.52;6.47;;;5.90;99.90;;;;;;4977981;28;20029;-76
2022/01/29 11:56:29;;;;;;;10.43;6.65;;;5.90;99.90;;;;;;4976496;28;20030;-76
2022/01/29 11:59:20;;;;;;;10.73;7.00;;;5.90;99.90;;;;;;4988391;28;20033;-75
2022/01/29 12:02:01;;;;;;;10.50;6.95;;;5.90;99.90;;;;;;4973550;28;20155;-75
2022/01/29 12:04:51;;;;;;;9.55;7.05;;;6.00;99.90;;;;;;4981583;28;20037;-75
2022/01/29 12:07:25;;;;;;;8.75;6.00;;;6.00;99.90;;;;;;4986664;28;20027;-75
2022/01/29 12:10:10;;;;;;;9.30;6.38;;;6.00;99.90;;;;;;4972666;28;20023;-75
2022/01/29 12:12:38;;;;;;;9.02;6.55;;;6.00;99.90;;;;;;4979290;28;20018;-75
2022/01/29 12:15:09;;;;;;;10.48;6.40;;;6.00;99.90;;;;;;4987218;28;20030;-76
2022/01/29 12:17:43;;;;;;;8.25;6.15;;;6.00;99.90;;;;;;4986965;28;20402;-75
2022/01/29 12:20:15;;;;;;;10.32;7.95;;;6.00;99.90;;;;;;4976680;28;20038;-75
2022/01/29 12:22:42;;;;;;;11.13;8.50;;;5.90;99.90;;;;;;4974409;28;20129;-75
2022/01/29 12:25:09;;;;;;;11.85;7.00;;;5.90;99.90;;;;;;4981856;28;20089;-75
2022/01/29 12:27:39;;;;;;;12.93;7.90;;;5.90;99.90;;;;;;4976467;28;20546;-75
2022/01/29 12:30:06;;;;;;;9.50;7.10;;;5.90;99.90;;;;;;4979404;28;20141;-75
2022/01/29 12:32:31;;;;;;;10.40;7.13;;;5.90;99.90;;;;;;4986837;28;20602;-76
2022/01/29 12:34:59;;;;;;;9.40;6.78;;;5.90;99.90;;;;;;4982111;28;20022;-75
2022/01/29 12:37:24;;;;;;;9.00;6.78;;;5.90;99.90;;;;;;4979364;28;20031;-75
2022/01/29 12:40:02;;;;;;;10.80;7.32;;;5.90;99.90;;;;;;4983372;28;20044;-76
2022/01/29 12:42:43;;;;;;;10.48;8.15;;;5.90;99.90;;;;;;4981551;28;20042;-75
2022/01/29 12:45:08;;;;;;;12.02;8.77;;;5.80;99.90;;;;;;4979232;28;20053;-75
2022/01/29 12:47:35;;;;;;;19.92;12.27;;;5.80;99.90;;;;;;4982126;28;20542;-74
2022/01/29 12:50:02;;;;;;;17.65;12.80;;;5.90;99.90;;;;;;4981155;28;20491;-74
2022/01/29 12:52:30;;;;;;;14.98;11.55;;;5.90;99.90;;;;;;4977839;28;20073;-74
2022/01/29 12:55:04;;;;;;;10.40;8.45;;;5.90;99.90;;;;;;4982780;28;20033;-75
2022/01/29 12:57:47;;;;;;;11.40;8.40;;;5.90;99.90;;;;;;4981534;28;20110;-75
2022/01/29 13:00:17;;;;;;;9.50;7.60;;;5.90;99.90;;;;;;4978398;28;20038;-75
2022/01/29 13:02:43;;;;;;;9.07;7.15;;;5.90;99.90;;;;;;4977486;28;20474;-73
2022/01/29 13:05:10;;;;;;;10.32;7.85;;;5.90;99.90;;;;;;4978031;28;20030;-73
2022/01/29 13:07:37;;;;;;;12.63;7.53;;;5.90;99.90;;;;;;4984343;28;20054;-74
2022/01/29 13:10:09;;;;;;;10.40;6.72;;;5.90;99.90;;;;;;4985975;28;20510;-74
2022/01/29 13:12:40;;;;;;;7.95;6.22;;;5.90;99.90;;;;;;4987594;28;20434;-74
2022/01/29 13:15:07;;;;;;;8.18;6.90;;;5.90;99.90;;;;;;4985836;28;20529;-74
2022/01/29 13:17:34;;;;;;;8.52;5.63;;;5.90;99.90;;;;;;4973723;28;20383;-74
2022/01/29 13:20:01;;;;;;;7.15;6.00;;;5.90;99.90;;;;;;4981323;28;20026;-75
2022/01/29 13:22:27;;;;;;;7.75;6.38;;;5.90;99.90;;;;;;4984008;28;20030;-73